sensor_id;sensor_type;location;lat;lon;timestamp;P1;durP1;ratioP1;P2;durP2;ratioP2
7503;SDS011;3793;48.136;11.536;2023-02-28T00:00:16;5.87;;;3.70;;
7503;SDS011;3793;48.136;11.536;2023-02-28T00:02:43;4.17;;;3.27;;
7503;SDS011;3793;48.136;11.536;2023-02-28T00:05:11;4.43;;;3.50;;
7503;SDS011;3793;48.136;11.536;2023-02-28T00:07:38;4.63;;;3.20;;
7503;SDS011;3793;48.136;11.536;2023-02-28T00:10:05;5.20;;;4.03;;
7503;SDS011;3793;48.136;11.536;2023-02-28T00:12:32;6.47;;;3.17;;
7503;SDS011;3793;48.136;11.536;2023-02-28T00:15:00;3.47;;;3.17;;
7503;SDS011;3793;48.136;11.536;2023-02-28T00:17:27;6.03;;;3.70;;
7503;SDS011;3793;48.136;11.536;2023-02-28T00:19:54;5.00;;;3.50;;
7503;SDS011;3793;48.136;11.536;2023-02-28T00:22:21;5.70;;;3.90;;
7503;SDS011;3793;48.136;11.536;2023-02-28T00:24:48;5.63;;;3.43;;
7503;SDS011;3793;48.136;11.536;2023-02-28T00:27:14;5.00;;;3.77;;
7503;SDS011;3793;48.136;11.536;2023-02-28T00:29:41;8.13;;;4.03;;
7503;SDS011;3793;48.136;11.536;2023-02-28T00:32:09;4.67;;;3.13;;
7503;SDS011;3793;48.136;11.536;2023-02-28T00:34:35;5.07;;;3.70;;
7503;SDS011;3793;48.136;11.536;2023-02-28T00:37:03;6.73;;;3.30;;
7503;SDS011;3793;48.136;11.536;2023-02-28T00:39:29;5.73;;;4.17;;
7503;SDS011;3793;48.136;11.536;2023-02-28T00:41:56;4.63;;;3.57;;
7503;SDS011;3793;48.136;11.536;2023-02-28T00:44:22;6.90;;;4.00;;
7503;SDS011;3793;48.136;11.536;2023-02-28T00:46:49;6.37;;;4.00;;
7503;SDS011;3793;48.136;11.536;2023-02-28T00:49:18;5.60;;;3.93;;
7503;SDS011;3793;48.136;11.536;2023-02-28T00:51:45;5.90;;;3.80;;
7503;SDS011;3793;48.136;11.536;2023-02-28T00:54:12;7.13;;;4.10;;
7503;SDS011;3793;48.136;11.536;2023-02-28T00:56:38;4.13;;;3.27;;
7503;SDS011;3793;48.136;11.536;2023-02-28T00:59:05;6.20;;;4.10;;
7503;SDS011;3793;48.136;11.536;2023-02-28T01:01:31;5.93;;;4.00;;
7503;SDS011;3793;48.136;11.536;2023-02-28T01:03:58;4.07;;;3.23;;
7503;SDS011;3793;48.136;11.536;2023-02-28T01:06:26;4.40;;;3.00;;
7503;SDS011;3793;48.136;11.536;2023-02-28T01:08:53;5.63;;;3.53;;
7503;SDS011;3793;48.136;11.536;2023-02-28T01:11:19;7.80;;;3.83;;
7503;SDS011;3793;48.136;11.536;2023-02-28T01:13:46;5.87;;;3.67;;
7503;SDS011;3793;48.136;11.536;2023-02-28T01:16:13;4.70;;;3.33;;
7503;SDS011;3793;48.136;11.536;2023-02-28T01:18:40;4.73;;;3.50;;
7503;SDS011;3793;48.136;11.536;2023-02-28T01:21:07;5.00;;;3.60;;
7503;SDS011;3793;48.136;11.536;2023-02-28T01:23:35;4.60;;;3.67;;
7503;SDS011;3793;48.136;11.536;2023-02-28T01:26:06;6.63;;;3.77;;
7503;SDS011;3793;48.136;11.536;2023-02-28T01:28:32;4.70;;;3.80;;
7503;SDS011;3793;48.136;11.536;2023-02-28T01:30:59;5.03;;;3.33;;
7503;SDS011;3793;48.136;11.536;2023-02-28T01:33:26;5.83;;;3.73;;
7503;SDS011;3793;48.136;11.536;2023-02-28T01:35:57;5.40;;;3.80;;
7503;SDS011;3793;48.136;11.536;2023-02-28T01:38:24;4.20;;;3.23;;
7503;SDS011;3793;48.136;11.536;2023-02-28T01:40:52;4.73;;;3.80;;
7503;SDS011;3793;48.136;11.536;2023-02-28T01:43:22;6.53;;;4.00;;
7503;SDS011;3793;48.136;11.536;2023-02-28T01:45:50;6.07;;;3.60;;
7503;SDS011;3793;48.136;11.536;2023-02-28T01:48:16;4.00;;;3.20;;
7503;SDS011;3793;48.136;11.536;2023-02-28T01:50:44;3.67;;;3.03;;
7503;SDS011;3793;48.136;11.536;2023-02-28T01:53:12;4.43;;;3.63;;
7503;SDS011;3793;48.136;11.536;2023-02-28T01:55:40;5.30;;;3.60;;
7503;SDS011;3793;48.136;11.536;2023-02-28T01:58:08;7.80;;;3.77;;
7503;SDS011;3793;48.136;11.536;2023-02-28T02:00:35;4.67;;;3.50;;
7503;SDS011;3793;48.136;11.536;2023-02-28T02:03:05;6.67;;;3.93;;
7503;SDS011;3793;48.136;11.536;2023-02-28T02:05:32;4.47;;;3.57;;
7503;SDS011;3793;48.136;11.536;2023-02-28T02:08:01;5.27;;;3.50;;
7503;SDS011;3793;48.136;11.536;2023-02-28T02:10:29;5.83;;;3.63;;
7503;SDS011;3793;48.136;11.536;2023-02-28T02:15:59;4.50;;;3.47;;
7503;SDS011;3793;48.136;11.536;2023-02-28T02:18:31;5.40;;;3.77;;
7503;SDS011;3793;48.136;11.536;2023-02-28T02:21:17;4.87;;;3.73;;
7503;SDS011;3793;48.136;11.536;2023-02-28T02:23:56;8.40;;;4.00;;
7503;SDS011;3793;48.136;11.536;2023-02-28T02:26:43;7.90;;;3.90;;
7503;SDS011;3793;48.136;11.536;2023-02-28T02:32:02;5.37;;;4.13;;
7503;SDS011;3793;48.136;11.536;2023-02-28T02:37:24;5.60;;;3.73;;
7503;SDS011;3793;48.136;11.536;2023-02-28T02:39:55;4.50;;;3.47;;
7503;SDS011;3793;48.136;11.536;2023-02-28T02:42:24;4.30;;;3.80;;
7503;SDS011;3793;48.136;11.536;2023-02-28T02:44:55;8.13;;;4.17;;
7503;SDS011;3793;48.136;11.536;2023-02-28T02:47:25;7.80;;;3.53;;
7503;SDS011;3793;48.136;11.536;2023-02-28T02:49:53;5.40;;;4.33;;
7503;SDS011;3793;48.136;11.536;2023-02-28T02:52:23;3.70;;;3.30;;
7503;SDS011;3793;48.136;11.536;2023-02-28T02:54:51;4.57;;;3.67;;
7503;SDS011;3793;48.136;11.536;2023-02-28T02:57:21;4.50;;;3.40;;
7503;SDS011;3793;48.136;11.536;2023-02-28T02:59:49;5.27;;;3.90;;
7503;SDS011;3793;48.136;11.536;2023-02-28T03:02:16;4.83;;;4.10;;
7503;SDS011;3793;48.136;11.536;2023-02-28T03:04:45;5.80;;;3.77;;
7503;SDS011;3793;48.136;11.536;2023-02-28T03:07:12;5.27;;;4.13;;
7503;SDS011;3793;48.136;11.536;2023-02-28T03:09:40;7.27;;;4.77;;
7503;SDS011;3793;48.136;11.536;2023-02-28T03:12:09;7.20;;;4.53;;
7503;SDS011;3793;48.136;11.536;2023-02-28T03:14:40;6.43;;;4.67;;
7503;SDS011;3793;48.136;11.536;2023-02-28T03:17:23;6.60;;;4.40;;
7503;SDS011;3793;48.136;11.536;2023-02-28T03:19:52;5.87;;;4.00;;
7503;SDS011;3793;48.136;11.536;2023-02-28T03:22:32;6.67;;;4.57;;
7503;SDS011;3793;48.136;11.536;2023-02-28T03:25:04;6.67;;;4.60;;
7503;SDS011;3793;48.136;11.536;2023-02-28T03:27:34;9.23;;;4.60;;
7503;SDS011;3793;48.136;11.536;2023-02-28T03:30:04;5.93;;;4.50;;
7503;SDS011;3793;48.136;11.536;2023-02-28T03:32:33;6.93;;;4.20;;
7503;SDS011;3793;48.136;11.536;2023-02-28T03:35:02;7.13;;;4.67;;
7503;SDS011;3793;48.136;11.536;2023-02-28T03:37:31;6.73;;;4.90;;
7503;SDS011;3793;48.136;11.536;2023-02-28T03:40:02;6.57;;;4.87;;
7503;SDS011;3793;48.136;11.536;2023-02-28T03:42:34;6.30;;;4.70;;
7503;SDS011;3793;48.136;11.536;2023-02-28T03:45:02;5.50;;;5.00;;
7503;SDS011;3793;48.136;11.536;2023-02-28T03:47:33;6.90;;;4.37;;
7503;SDS011;3793;48.136;11.536;2023-02-28T03:50:03;7.83;;;5.17;;
7503;SDS011;3793;48.136;11.536;2023-02-28T03:52:32;7.30;;;5.27;;
7503;SDS011;3793;48.136;11.536;2023-02-28T03:55:02;9.20;;;5.37;;
7503;SDS011;3793;48.136;11.536;2023-02-28T03:57:33;6.47;;;4.53;;
7503;SDS011;3793;48.136;11.536;2023-02-28T04:00:02;7.93;;;5.27;;
7503;SDS011;3793;48.136;11.536;2023-02-28T04:02:30;9.23;;;5.57;;
7503;SDS011;3793;48.136;11.536;2023-02-28T04:04:57;8.67;;;5.03;;
7503;SDS011;3793;48.136;11.536;2023-02-28T04:07:24;7.50;;;5.27;;
7503;SDS011;3793;48.136;11.536;2023-02-28T04:09:51;10.50;;;5.57;;
7503;SDS011;3793;48.136;11.536;2023-02-28T04:12:19;8.87;;;5.67;;
7503;SDS011;3793;48.136;11.536;2023-02-28T04:14:48;6.77;;;5.40;;
7503;SDS011;3793;48.136;11.536;2023-02-28T04:17:14;10.77;;;6.70;;
7503;SDS011;3793;48.136;11.536;2023-02-28T04:19:41;9.10;;;6.17;;
7503;SDS011;3793;48.136;11.536;2023-02-28T04:22:08;9.17;;;6.10;;
7503;SDS011;3793;48.136;11.536;2023-02-28T04:24:35;9.10;;;5.93;;
7503;SDS011;3793;48.136;11.536;2023-02-28T04:27:01;6.53;;;5.33;;
7503;SDS011;3793;48.136;11.536;2023-02-28T04:29:30;10.07;;;5.60;;
7503;SDS011;3793;48.136;11.536;2023-02-28T04:31:56;8.73;;;6.33;;
7503;SDS011;3793;48.136;11.536;2023-02-28T04:34:24;8.90;;;6.37;;
7503;SDS011;3793;48.136;11.536;2023-02-28T04:36:51;7.90;;;6.27;;
7503;SDS011;3793;48.136;11.536;2023-02-28T04:39:19;12.57;;;7.43;;
7503;SDS011;3793;48.136;11.536;2023-02-28T04:41:46;10.97;;;6.67;;
7503;SDS011;3793;48.136;11.536;2023-02-28T04:44:12;11.97;;;7.07;;
7503;SDS011;3793;48.136;11.536;2023-02-28T04:46:41;10.13;;;6.77;;
7503;SDS011;3793;48.136;11.536;2023-02-28T04:49:07;12.57;;;7.20;;
7503;SDS011;3793;48.136;11.536;2023-02-28T04:51:34;12.97;;;7.00;;
7503;SDS011;3793;48.136;11.536;2023-02-28T04:54:01;9.83;;;6.57;;
7503;SDS011;3793;48.136;11.536;2023-02-28T04:56:27;9.43;;;6.80;;
7503;SDS011;3793;48.136;11.536;2023-02-28T04:58:54;10.67;;;6.57;;
7503;SDS011;3793;48.136;11.536;2023-02-28T05:01:22;10.67;;;6.97;;
7503;SDS011;3793;48.136;11.536;2023-02-28T05:03:51;10.93;;;7.47;;
7503;SDS011;3793;48.136;11.536;2023-02-28T05:06:18;11.93;;;7.40;;
7503;SDS011;3793;48.136;11.536;2023-02-28T05:08:45;10.77;;;7.57;;
7503;SDS011;3793;48.136;11.536;2023-02-28T05:11:13;11.27;;;7.60;;
7503;SDS011;3793;48.136;11.536;2023-02-28T05:13:40;10.70;;;6.83;;
7503;SDS011;3793;48.136;11.536;2023-02-28T05:16:07;13.07;;;7.97;;
7503;SDS011;3793;48.136;11.536;2023-02-28T05:18:33;13.13;;;7.87;;
7503;SDS011;3793;48.136;11.536;2023-02-28T05:21:01;11.90;;;8.10;;
7503;SDS011;3793;48.136;11.536;2023-02-28T05:23:28;13.10;;;8.27;;
7503;SDS011;3793;48.136;11.536;2023-02-28T05:25:55;14.30;;;8.27;;
7503;SDS011;3793;48.136;11.536;2023-02-28T05:28:21;11.50;;;8.27;;
7503;SDS011;3793;48.136;11.536;2023-02-28T05:30:48;11.63;;;7.93;;
7503;SDS011;3793;48.136;11.536;2023-02-28T05:33:14;12.50;;;8.27;;
7503;SDS011;3793;48.136;11.536;2023-02-28T05:35:41;12.47;;;8.63;;
7503;SDS011;3793;48.136;11.536;2023-02-28T05:38:09;11.73;;;7.60;;
7503;SDS011;3793;48.136;11.536;2023-02-28T05:40:37;13.27;;;8.13;;
7503;SDS011;3793;48.136;11.536;2023-02-28T05:43:04;11.67;;;8.23;;
7503;SDS011;3793;48.136;11.536;2023-02-28T05:45:31;16.40;;;8.30;;
7503;SDS011;3793;48.136;11.536;2023-02-28T05:47:57;11.60;;;8.33;;
7503;SDS011;3793;48.136;11.536;2023-02-28T05:50:24;12.77;;;8.23;;
7503;SDS011;3793;48.136;11.536;2023-02-28T05:52:50;12.73;;;8.17;;
7503;SDS011;3793;48.136;11.536;2023-02-28T05:55:18;15.83;;;9.03;;
7503;SDS011;3793;48.136;11.536;2023-02-28T05:57:45;16.83;;;9.30;;
7503;SDS011;3793;48.136;11.536;2023-02-28T06:00:12;13.47;;;9.97;;
7503;SDS011;3793;48.136;11.536;2023-02-28T06:02:40;16.43;;;9.37;;
7503;SDS011;3793;48.136;11.536;2023-02-28T06:05:07;14.13;;;9.03;;
7503;SDS011;3793;48.136;11.536;2023-02-28T06:07:38;17.43;;;9.60;;
7503;SDS011;3793;48.136;11.536;2023-02-28T06:10:05;17.50;;;9.27;;
7503;SDS011;3793;48.136;11.536;2023-02-28T06:12:34;15.87;;;10.00;;
7503;SDS011;3793;48.136;11.536;2023-02-28T06:15:00;16.60;;;10.20;;
7503;SDS011;3793;48.136;11.536;2023-02-28T06:17:27;16.20;;;10.17;;
7503;SDS011;3793;48.136;11.536;2023-02-28T06:19:54;16.37;;;10.03;;
7503;SDS011;3793;48.136;11.536;2023-02-28T06:22:20;17.87;;;10.80;;
7503;SDS011;3793;48.136;11.536;2023-02-28T06:24:47;15.37;;;10.53;;
7503;SDS011;3793;48.136;11.536;2023-02-28T06:27:13;16.70;;;10.23;;
7503;SDS011;3793;48.136;11.536;2023-02-28T06:29:41;14.70;;;10.47;;
7503;SDS011;3793;48.136;11.536;2023-02-28T06:32:08;15.33;;;10.70;;
7503;SDS011;3793;48.136;11.536;2023-02-28T06:34:35;14.83;;;11.33;;
7503;SDS011;3793;48.136;11.536;2023-02-28T06:37:02;14.87;;;10.90;;
7503;SDS011;3793;48.136;11.536;2023-02-28T06:39:28;14.50;;;11.07;;
7503;SDS011;3793;48.136;11.536;2023-02-28T06:41:55;14.83;;;10.40;;
7503;SDS011;3793;48.136;11.536;2023-02-28T06:44:23;19.20;;;11.63;;
7503;SDS011;3793;48.136;11.536;2023-02-28T06:46:51;17.27;;;12.13;;
7503;SDS011;3793;48.136;11.536;2023-02-28T06:49:17;17.20;;;10.07;;
7503;SDS011;3793;48.136;11.536;2023-02-28T06:51:44;15.03;;;10.50;;
7503;SDS011;3793;48.136;11.536;2023-02-28T06:54:11;14.80;;;10.97;;
7503;SDS011;3793;48.136;11.536;2023-02-28T06:56:38;15.83;;;10.57;;
7503;SDS011;3793;48.136;11.536;2023-02-28T06:59:05;16.07;;;11.97;;
7503;SDS011;3793;48.136;11.536;2023-02-28T07:01:31;16.33;;;11.20;;
7503;SDS011;3793;48.136;11.536;2023-02-28T07:04:00;18.00;;;11.13;;
7503;SDS011;3793;48.136;11.536;2023-02-28T07:06:26;15.47;;;10.40;;
7503;SDS011;3793;48.136;11.536;2023-02-28T07:08:53;16.53;;;12.17;;
7503;SDS011;3793;48.136;11.536;2023-02-28T07:11:20;17.73;;;12.47;;
7503;SDS011;3793;48.136;11.536;2023-02-28T07:13:50;18.70;;;12.43;;
7503;SDS011;3793;48.136;11.536;2023-02-28T07:16:17;18.03;;;11.27;;
7503;SDS011;3793;48.136;11.536;2023-02-28T07:18:43;19.07;;;11.70;;
7503;SDS011;3793;48.136;11.536;2023-02-28T07:21:11;15.80;;;11.50;;
7503;SDS011;3793;48.136;11.536;2023-02-28T07:23:38;18.17;;;11.70;;
7503;SDS011;3793;48.136;11.536;2023-02-28T07:26:05;17.40;;;11.77;;
7503;SDS011;3793;48.136;11.536;2023-02-28T07:28:31;16.63;;;11.43;;
7503;SDS011;3793;48.136;11.536;2023-02-28T07:31:04;16.93;;;11.30;;
7503;SDS011;3793;48.136;11.536;2023-02-28T07:33:31;17.43;;;12.00;;
7503;SDS011;3793;48.136;11.536;2023-02-28T07:35:59;18.77;;;12.67;;
7503;SDS011;3793;48.136;11.536;2023-02-28T07:38:28;16.40;;;11.07;;
7503;SDS011;3793;48.136;11.536;2023-02-28T07:40:54;15.40;;;11.63;;
7503;SDS011;3793;48.136;11.536;2023-02-28T07:43:21;16.93;;;11.77;;
7503;SDS011;3793;48.136;11.536;2023-02-28T07:45:50;16.83;;;11.77;;
7503;SDS011;3793;48.136;11.536;2023-02-28T07:48:17;16.20;;;11.40;;
7503;SDS011;3793;48.136;11.536;2023-02-28T07:50:43;20.83;;;11.87;;
7503;SDS011;3793;48.136;11.536;2023-02-28T07:53:13;21.37;;;12.47;;
7503;SDS011;3793;48.136;11.536;2023-02-28T07:55:41;18.87;;;12.53;;
7503;SDS011;3793;48.136;11.536;2023-02-28T07:58:07;19.80;;;12.13;;
7503;SDS011;3793;48.136;11.536;2023-02-28T08:00:34;20.50;;;12.70;;
7503;SDS011;3793;48.136;11.536;2023-02-28T08:03:00;16.57;;;11.00;;
7503;SDS011;3793;48.136;11.536;2023-02-28T08:05:27;19.70;;;12.37;;
7503;SDS011;3793;48.136;11.536;2023-02-28T08:07:55;14.30;;;11.80;;
7503;SDS011;3793;48.136;11.536;2023-02-28T08:10:21;19.73;;;11.57;;
7503;SDS011;3793;48.136;11.536;2023-02-28T08:12:59;15.47;;;10.73;;
7503;SDS011;3793;48.136;11.536;2023-02-28T08:15:26;15.93;;;12.13;;
7503;SDS011;3793;48.136;11.536;2023-02-28T08:17:52;16.90;;;11.20;;
7503;SDS011;3793;48.136;11.536;2023-02-28T08:20:21;16.37;;;11.83;;
7503;SDS011;3793;48.136;11.536;2023-02-28T08:22:47;18.73;;;11.40;;
7503;SDS011;3793;48.136;11.536;2023-02-28T08:25:14;19.50;;;12.00;;
7503;SDS011;3793;48.136;11.536;2023-02-28T08:27:41;16.23;;;11.00;;
7503;SDS011;3793;48.136;11.536;2023-02-28T08:30:11;17.73;;;11.40;;
7503;SDS011;3793;48.136;11.536;2023-02-28T08:32:38;16.63;;;10.77;;
7503;SDS011;3793;48.136;11.536;2023-02-28T08:35:05;18.10;;;12.40;;
7503;SDS011;3793;48.136;11.536;2023-02-28T08:37:32;17.33;;;11.83;;
7503;SDS011;3793;48.136;11.536;2023-02-28T08:39:58;16.60;;;11.77;;
7503;SDS011;3793;48.136;11.536;2023-02-28T08:42:25;16.70;;;11.53;;
7503;SDS011;3793;48.136;11.536;2023-02-28T08:44:51;15.63;;;11.37;;
7503;SDS011;3793;48.136;11.536;2023-02-28T08:47:20;19.40;;;11.97;;
7503;SDS011;3793;48.136;11.536;2023-02-28T08:49:46;15.43;;;11.83;;
7503;SDS011;3793;48.136;11.536;2023-02-28T08:52:13;17.10;;;11.77;;
7503;SDS011;3793;48.136;11.536;2023-02-28T08:54:40;18.77;;;12.00;;
7503;SDS011;3793;48.136;11.536;2023-02-28T08:57:06;19.07;;;12.27;;
7503;SDS011;3793;48.136;11.536;2023-02-28T08:59:33;16.50;;;12.00;;
7503;SDS011;3793;48.136;11.536;2023-02-28T09:01:59;22.93;;;12.63;;
7503;SDS011;3793;48.136;11.536;2023-02-28T09:04:27;16.60;;;11.20;;
7503;SDS011;3793;48.136;11.536;2023-02-28T09:06:56;21.70;;;12.20;;
7503;SDS011;3793;48.136;11.536;2023-02-28T09:09:22;15.67;;;11.73;;
7503;SDS011;3793;48.136;11.536;2023-02-28T09:11:49;20.20;;;12.03;;
7503;SDS011;3793;48.136;11.536;2023-02-28T09:14:15;24.33;;;11.37;;
7503;SDS011;3793;48.136;11.536;2023-02-28T09:16:42;21.93;;;11.63;;
7503;SDS011;3793;48.136;11.536;2023-02-28T09:19:10;15.87;;;11.57;;
7503;SDS011;3793;48.136;11.536;2023-02-28T09:21:38;18.43;;;10.83;;
7503;SDS011;3793;48.136;11.536;2023-02-28T09:24:05;15.57;;;12.23;;
7503;SDS011;3793;48.136;11.536;2023-02-28T09:26:31;16.83;;;12.67;;
7503;SDS011;3793;48.136;11.536;2023-02-28T09:28:59;13.87;;;10.53;;
7503;SDS011;3793;48.136;11.536;2023-02-28T09:31:27;19.00;;;11.40;;
7503;SDS011;3793;48.136;11.536;2023-02-28T09:33:55;19.93;;;13.17;;
7503;SDS011;3793;48.136;11.536;2023-02-28T09:36:22;16.83;;;12.23;;
7503;SDS011;3793;48.136;11.536;2023-02-28T09:38:51;21.10;;;11.27;;
7503;SDS011;3793;48.136;11.536;2023-02-28T09:41:19;17.13;;;11.53;;
7503;SDS011;3793;48.136;11.536;2023-02-28T09:43:47;17.20;;;12.00;;
7503;SDS011;3793;48.136;11.536;2023-02-28T09:46:20;20.60;;;12.50;;
7503;SDS011;3793;48.136;11.536;2023-02-28T09:48:51;18.90;;;12.53;;
7503;SDS011;3793;48.136;11.536;2023-02-28T09:51:24;16.53;;;12.70;;
7503;SDS011;3793;48.136;11.536;2023-02-28T09:53:54;18.03;;;12.33;;
7503;SDS011;3793;48.136;11.536;2023-02-28T09:56:22;19.90;;;11.80;;
7503;SDS011;3793;48.136;11.536;2023-02-28T09:58:53;22.43;;;12.03;;
7503;SDS011;3793;48.136;11.536;2023-02-28T10:01:21;20.33;;;13.23;;
7503;SDS011;3793;48.136;11.536;2023-02-28T10:03:50;21.57;;;12.33;;
7503;SDS011;3793;48.136;11.536;2023-02-28T10:06:20;18.33;;;12.87;;
7503;SDS011;3793;48.136;11.536;2023-02-28T10:08:50;17.63;;;12.00;;
7503;SDS011;3793;48.136;11.536;2023-02-28T10:11:20;20.10;;;12.07;;
7503;SDS011;3793;48.136;11.536;2023-02-28T10:13:50;17.67;;;11.47;;
7503;SDS011;3793;48.136;11.536;2023-02-28T10:16:20;18.63;;;12.40;;
7503;SDS011;3793;48.136;11.536;2023-02-28T10:18:49;19.90;;;11.93;;
7503;SDS011;3793;48.136;11.536;2023-02-28T10:21:18;18.17;;;11.70;;
7503;SDS011;3793;48.136;11.536;2023-02-28T10:23:46;14.93;;;11.23;;
7503;SDS011;3793;48.136;11.536;2023-02-28T10:26:16;15.73;;;11.77;;
7503;SDS011;3793;48.136;11.536;2023-02-28T10:28:44;15.03;;;10.80;;
7503;SDS011;3793;48.136;11.536;2023-02-28T10:31:11;17.33;;;11.43;;
7503;SDS011;3793;48.136;11.536;2023-02-28T10:33:41;17.53;;;10.90;;
7503;SDS011;3793;48.136;11.536;2023-02-28T10:36:09;16.07;;;11.33;;
7503;SDS011;3793;48.136;11.536;2023-02-28T10:38:38;14.93;;;11.50;;
7503;SDS011;3793;48.136;11.536;2023-02-28T10:41:06;17.53;;;12.23;;
7503;SDS011;3793;48.136;11.536;2023-02-28T10:43:32;15.13;;;11.67;;
7503;SDS011;3793;48.136;11.536;2023-02-28T10:46:01;15.13;;;11.17;;
7503;SDS011;3793;48.136;11.536;2023-02-28T10:48:30;14.63;;;11.47;;
7503;SDS011;3793;48.136;11.536;2023-02-28T10:50:57;14.67;;;10.73;;
7503;SDS011;3793;48.136;11.536;2023-02-28T10:56:14;17.50;;;12.03;;
7503;SDS011;3793;48.136;11.536;2023-02-28T10:58:46;13.17;;;10.30;;
7503;SDS011;3793;48.136;11.536;2023-02-28T11:01:19;13.17;;;10.33;;
7503;SDS011;3793;48.136;11.536;2023-02-28T11:03:46;15.70;;;10.90;;
7503;SDS011;3793;48.136;11.536;2023-02-28T11:06:15;15.87;;;11.80;;
7503;SDS011;3793;48.136;11.536;2023-02-28T11:08:43;13.57;;;10.30;;
7503;SDS011;3793;48.136;11.536;2023-02-28T11:11:11;19.53;;;12.07;;
7503;SDS011;3793;48.136;11.536;2023-02-28T11:13:37;16.10;;;10.83;;
7503;SDS011;3793;48.136;11.536;2023-02-28T11:16:05;14.27;;;10.23;;
7503;SDS011;3793;48.136;11.536;2023-02-28T11:18:36;15.00;;;11.03;;
7503;SDS011;3793;48.136;11.536;2023-02-28T11:21:04;15.97;;;10.53;;
7503;SDS011;3793;48.136;11.536;2023-02-28T11:23:32;14.23;;;10.53;;
7503;SDS011;3793;48.136;11.536;2023-02-28T11:26:00;16.43;;;11.70;;
7503;SDS011;3793;48.136;11.536;2023-02-28T11:28:30;19.00;;;11.63;;
7503;SDS011;3793;48.136;11.536;2023-02-28T11:31:01;15.80;;;11.33;;
7503;SDS011;3793;48.136;11.536;2023-02-28T11:33:30;15.17;;;10.50;;
7503;SDS011;3793;48.136;11.536;2023-02-28T11:35:59;18.90;;;12.23;;
7503;SDS011;3793;48.136;11.536;2023-02-28T11:38:27;16.20;;;11.73;;
7503;SDS011;3793;48.136;11.536;2023-02-28T11:40:59;13.93;;;11.60;;
7503;SDS011;3793;48.136;11.536;2023-02-28T11:43:34;20.83;;;11.57;;
7503;SDS011;3793;48.136;11.536;2023-02-28T11:46:06;14.00;;;11.03;;
7503;SDS011;3793;48.136;11.536;2023-02-28T11:48:41;18.03;;;11.63;;
7503;SDS011;3793;48.136;11.536;2023-02-28T11:51:13;16.60;;;11.40;;
7503;SDS011;3793;48.136;11.536;2023-02-28T11:56:25;17.00;;;10.90;;
7503;SDS011;3793;48.136;11.536;2023-02-28T11:59:00;15.17;;;11.73;;
7503;SDS011;3793;48.136;11.536;2023-02-28T12:01:33;15.87;;;11.33;;
7503;SDS011;3793;48.136;11.536;2023-02-28T12:04:16;15.03;;;10.10;;
7503;SDS011;3793;48.136;11.536;2023-02-28T12:06:45;14.50;;;10.33;;
7503;SDS011;3793;48.136;11.536;2023-02-28T12:09:31;16.97;;;10.73;;
7503;SDS011;3793;48.136;11.536;2023-02-28T12:12:02;14.83;;;10.70;;
7503;SDS011;3793;48.136;11.536;2023-02-28T12:17:25;14.60;;;10.97;;
7503;SDS011;3793;48.136;11.536;2023-02-28T12:19:54;15.03;;;10.67;;
7503;SDS011;3793;48.136;11.536;2023-02-28T12:22:29;16.37;;;9.93;;
7503;SDS011;3793;48.136;11.536;2023-02-28T12:27:41;17.07;;;11.03;;
7503;SDS011;3793;48.136;11.536;2023-02-28T12:30:13;16.30;;;10.57;;
7503;SDS011;3793;48.136;11.536;2023-02-28T12:32:41;16.47;;;10.77;;
7503;SDS011;3793;48.136;11.536;2023-02-28T12:35:11;20.53;;;10.90;;
7503;SDS011;3793;48.136;11.536;2023-02-28T12:37:40;15.67;;;11.27;;
7503;SDS011;3793;48.136;11.536;2023-02-28T12:40:09;15.67;;;10.13;;
7503;SDS011;3793;48.136;11.536;2023-02-28T12:42:38;12.10;;;9.47;;
7503;SDS011;3793;48.136;11.536;2023-02-28T12:45:07;12.27;;;9.70;;
7503;SDS011;3793;48.136;11.536;2023-02-28T12:47:36;12.80;;;9.53;;
7503;SDS011;3793;48.136;11.536;2023-02-28T12:50:05;18.90;;;10.10;;
7503;SDS011;3793;48.136;11.536;2023-02-28T12:52:35;15.43;;;9.97;;
7503;SDS011;3793;48.136;11.536;2023-02-28T12:55:05;15.67;;;9.60;;
7503;SDS011;3793;48.136;11.536;2023-02-28T12:57:34;12.50;;;9.63;;
7503;SDS011;3793;48.136;11.536;2023-02-28T13:00:04;12.27;;;10.07;;
7503;SDS011;3793;48.136;11.536;2023-02-28T13:05:34;13.07;;;8.93;;
7503;SDS011;3793;48.136;11.536;2023-02-28T13:11:02;14.53;;;9.90;;
7503;SDS011;3793;48.136;11.536;2023-02-28T13:13:29;12.77;;;9.73;;
7503;SDS011;3793;48.136;11.536;2023-02-28T13:16:01;11.60;;;9.43;;
7503;SDS011;3793;48.136;11.536;2023-02-28T13:18:32;12.00;;;9.03;;
7503;SDS011;3793;48.136;11.536;2023-02-28T13:21:01;17.40;;;9.37;;
7503;SDS011;3793;48.136;11.536;2023-02-28T13:23:38;13.50;;;9.20;;
7503;SDS011;3793;48.136;11.536;2023-02-28T13:26:06;14.17;;;9.00;;
7503;SDS011;3793;48.136;11.536;2023-02-28T13:34:15;14.37;;;9.47;;
7503;SDS011;3793;48.136;11.536;2023-02-28T13:36:41;12.57;;;9.40;;
7503;SDS011;3793;48.136;11.536;2023-02-28T13:41:55;10.60;;;8.70;;
7503;SDS011;3793;48.136;11.536;2023-02-28T13:44:22;14.37;;;10.37;;
7503;SDS011;3793;48.136;11.536;2023-02-28T13:49:36;14.13;;;9.67;;
7503;SDS011;3793;48.136;11.536;2023-02-28T13:52:06;11.30;;;8.80;;
7503;SDS011;3793;48.136;11.536;2023-02-28T13:54:40;13.97;;;9.50;;
7503;SDS011;3793;48.136;11.536;2023-02-28T13:57:14;11.60;;;9.13;;
7503;SDS011;3793;48.136;11.536;2023-02-28T13:59:46;12.47;;;9.10;;
7503;SDS011;3793;48.136;11.536;2023-02-28T14:02:28;10.90;;;9.43;;
7503;SDS011;3793;48.136;11.536;2023-02-28T14:05:04;11.87;;;9.90;;
7503;SDS011;3793;48.136;11.536;2023-02-28T14:07:32;10.73;;;8.30;;
7503;SDS011;3793;48.136;11.536;2023-02-28T14:10:00;11.73;;;9.07;;
7503;SDS011;3793;48.136;11.536;2023-02-28T14:15:34;13.17;;;8.87;;
7503;SDS011;3793;48.136;11.536;2023-02-28T14:18:03;13.27;;;9.33;;
7503;SDS011;3793;48.136;11.536;2023-02-28T14:20:31;11.47;;;9.17;;
7503;SDS011;3793;48.136;11.536;2023-02-28T14:23:00;11.20;;;8.60;;
7503;SDS011;3793;48.136;11.536;2023-02-28T14:25:31;11.53;;;9.17;;
7503;SDS011;3793;48.136;11.536;2023-02-28T14:28:03;11.57;;;8.87;;
7503;SDS011;3793;48.136;11.536;2023-02-28T14:33:26;11.97;;;9.03;;
7503;SDS011;3793;48.136;11.536;2023-02-28T14:35:57;11.80;;;8.63;;
7503;SDS011;3793;48.136;11.536;2023-02-28T14:38:27;12.40;;;8.70;;
7503;SDS011;3793;48.136;11.536;2023-02-28T14:40:56;11.57;;;9.47;;
7503;SDS011;3793;48.136;11.536;2023-02-28T14:43:24;10.73;;;8.63;;
7503;SDS011;3793;48.136;11.536;2023-02-28T14:45:51;11.93;;;9.20;;
7503;SDS011;3793;48.136;11.536;2023-02-28T14:48:19;11.77;;;8.90;;
7503;SDS011;3793;48.136;11.536;2023-02-28T14:50:49;14.73;;;8.80;;
7503;SDS011;3793;48.136;11.536;2023-02-28T14:53:18;26.67;;;10.03;;
7503;SDS011;3793;48.136;11.536;2023-02-28T14:55:45;16.37;;;9.37;;
7503;SDS011;3793;48.136;11.536;2023-02-28T14:58:17;13.30;;;8.93;;
7503;SDS011;3793;48.136;11.536;2023-02-28T15:00:47;12.53;;;9.53;;
7503;SDS011;3793;48.136;11.536;2023-02-28T15:03:17;11.97;;;9.10;;
7503;SDS011;3793;48.136;11.536;2023-02-28T15:05:50;11.07;;;8.93;;
7503;SDS011;3793;48.136;11.536;2023-02-28T15:08:17;14.07;;;9.13;;
7503;SDS011;3793;48.136;11.536;2023-02-28T15:10:45;13.23;;;9.53;;
7503;SDS011;3793;48.136;11.536;2023-02-28T15:13:13;13.10;;;9.33;;
7503;SDS011;3793;48.136;11.536;2023-02-28T15:15:45;13.40;;;8.93;;
7503;SDS011;3793;48.136;11.536;2023-02-28T15:18:14;13.27;;;9.37;;
7503;SDS011;3793;48.136;11.536;2023-02-28T15:20:42;15.30;;;10.27;;
7503;SDS011;3793;48.136;11.536;2023-02-28T15:23:11;14.10;;;9.47;;
7503;SDS011;3793;48.136;11.536;2023-02-28T15:25:38;11.13;;;9.00;;
7503;SDS011;3793;48.136;11.536;2023-02-28T15:28:05;10.93;;;9.03;;
7503;SDS011;3793;48.136;11.536;2023-02-28T15:30:36;12.97;;;9.20;;
7503;SDS011;3793;48.136;11.536;2023-02-28T15:33:04;15.27;;;9.27;;
7503;SDS011;3793;48.136;11.536;2023-02-28T15:35:33;14.17;;;9.40;;